createdAt,value
2022-08-29T00:00:07.987Z,4.80
2022-08-29T00:02:45.060Z,4.90
2022-08-29T00:05:13.610Z,4.40
2022-08-29T00:07:42.318Z,4.13
2022-08-29T00:10:12.297Z,4.57
2022-08-29T00:12:40.745Z,4.30
2022-08-29T00:15:10.582Z,4.50
2022-08-29T00:17:39.023Z,4.13
2022-08-29T00:20:08.341Z,4.60
2022-08-29T00:22:36.813Z,4.37
2022-08-29T00:25:06.524Z,4.53
2022-08-29T00:27:36.659Z,4.80
2022-08-29T00:30:06.722Z,4.57
2022-08-29T00:32:36.368Z,4.70
2022-08-29T00:35:05.498Z,4.57
2022-08-29T00:37:33.887Z,4.73
2022-08-29T00:40:02.441Z,4.60
2022-08-29T00:42:31.457Z,5.17
2022-08-29T00:45:01.269Z,5.10
2022-08-29T00:47:33.082Z,4.90
2022-08-29T00:50:01.873Z,4.83
2022-08-29T00:52:32.981Z,4.67
2022-08-29T00:55:02.826Z,4.30
2022-08-29T00:57:32.553Z,4.40
2022-08-29T01:00:02.575Z,4.27
2022-08-29T01:02:31.055Z,4.17
2022-08-29T01:05:00.321Z,4.13
2022-08-29T01:07:28.995Z,4.33
2022-08-29T01:09:57.504Z,3.83
2022-08-29T01:12:25.634Z,4.27
2022-08-29T01:14:55.350Z,4.27
2022-08-29T01:17:26.071Z,4.83
2022-08-29T01:19:58.244Z,4.30
2022-08-29T01:22:41.476Z,4.07
2022-08-29T01:25:13.563Z,4.43
2022-08-29T01:27:43.769Z,4.27
2022-08-29T01:30:13.224Z,4.57
2022-08-29T01:32:41.604Z,4.20
2022-08-29T01:35:10.105Z,4.10
2022-08-29T01:37:40.211Z,3.90
2022-08-29T01:40:09.322Z,4.30
2022-08-29T01:42:39.493Z,4.43
2022-08-29T01:45:09.952Z,4.33
2022-08-29T01:47:39.007Z,4.70
2022-08-29T01:50:10.206Z,4.70
2022-08-29T01:52:38.599Z,4.70
2022-08-29T01:55:07.535Z,4.70
2022-08-29T01:57:35.943Z,4.60
2022-08-29T02:00:06.895Z,4.63
2022-08-29T02:02:35.356Z,4.70
2022-08-29T02:05:05.430Z,5.10
2022-08-29T02:07:33.819Z,4.40
2022-08-29T02:10:02.255Z,4.97
2022-08-29T02:12:31.696Z,4.70
2022-08-29T02:15:00.328Z,5.13
2022-08-29T02:17:30.139Z,5.23
2022-08-29T02:19:58.591Z,5.20
2022-08-29T02:22:27.010Z,5.23
2022-08-29T02:24:55.730Z,5.33
2022-08-29T02:27:24.110Z,5.00
2022-08-29T02:29:53.192Z,5.10
2022-08-29T02:32:22.017Z,5.20
2022-08-29T02:34:52.008Z,5.30
2022-08-29T02:37:20.396Z,5.87
2022-08-29T02:39:48.924Z,5.70
2022-08-29T02:42:17.304Z,5.37
2022-08-29T02:44:45.736Z,5.53
2022-08-29T02:47:14.436Z,5.73
2022-08-29T02:49:43.686Z,5.70
2022-08-29T02:52:14.975Z,6.20
2022-08-29T02:54:43.407Z,6.23
2022-08-29T02:57:11.789Z,5.90
2022-08-29T02:59:40.193Z,5.63
2022-08-29T03:02:08.650Z,5.50
2022-08-29T03:04:37.088Z,6.20
2022-08-29T03:07:06.275Z,5.70
2022-08-29T03:09:36.084Z,5.60
2022-08-29T03:12:04.695Z,5.47
2022-08-29T03:14:33.107Z,5.80
2022-08-29T03:17:01.850Z,5.80
2022-08-29T03:19:30.262Z,6.27
2022-08-29T03:21:58.654Z,6.00
2022-08-29T03:24:27.300Z,6.20
2022-08-29T03:26:58.768Z,5.27
2022-08-29T03:29:27.446Z,5.97
2022-08-29T03:31:58.425Z,5.77
2022-08-29T03:34:27.432Z,6.00
2022-08-29T03:36:55.938Z,5.93
2022-08-29T03:39:24.360Z,5.67
2022-08-29T03:41:53.285Z,5.60
2022-08-29T03:44:23.534Z,6.10
2022-08-29T03:46:51.957Z,6.20
2022-08-29T03:49:20.435Z,6.20
2022-08-29T03:51:50.084Z,6.10
2022-08-29T03:54:18.644Z,6.00
2022-08-29T03:56:47.284Z,5.97
2022-08-29T03:59:16.272Z,5.57
2022-08-29T04:01:48.142Z,5.33
2022-08-29T04:04:37.510Z,4.83
2022-08-29T04:07:06.573Z,5.17
2022-08-29T04:09:35.185Z,4.87
2022-08-29T04:12:03.599Z,4.70
2022-08-29T04:14:32.553Z,4.30
2022-08-29T04:17:04.293Z,4.50
2022-08-29T04:19:33.348Z,4.23
2022-08-29T04:22:01.750Z,4.27
2022-08-29T04:24:32.770Z,4.00
2022-08-29T04:27:01.568Z,4.10
2022-08-29T04:29:30.242Z,4.20
2022-08-29T04:31:58.630Z,4.60
2022-08-29T04:34:28.449Z,3.80
2022-08-29T04:36:57.517Z,3.90
2022-08-29T04:39:27.054Z,4.00
2022-08-29T04:41:55.429Z,4.00
2022-08-29T04:44:23.837Z,4.40
2022-08-29T04:46:52.240Z,3.97
2022-08-29T04:49:21.739Z,3.73
2022-08-29T04:51:54.830Z,4.47
2022-08-29T04:54:23.366Z,3.90
2022-08-29T04:56:51.756Z,4.70
2022-08-29T04:59:25.751Z,4.27
2022-08-29T05:01:55.321Z,4.37
2022-08-29T05:04:23.800Z,3.90
2022-08-29T05:06:53.562Z,3.80
2022-08-29T05:09:22.211Z,3.57
2022-08-29T05:11:50.858Z,3.90
2022-08-29T05:14:19.284Z,3.97
2022-08-29T05:16:48.549Z,3.70
2022-08-29T05:19:17.680Z,4.00
2022-08-29T05:21:46.356Z,3.50
2022-08-29T05:24:19.168Z,4.00
2022-08-29T05:26:48.229Z,3.80
2022-08-29T05:29:16.742Z,4.03
2022-08-29T05:31:45.870Z,3.80
2022-08-29T05:34:34.315Z,4.30
2022-08-29T05:37:03.061Z,3.80
2022-08-29T05:39:33.394Z,3.40
2022-08-29T05:42:02.494Z,4.03
2022-08-29T05:44:35.078Z,3.77
2022-08-29T05:47:04.055Z,4.10
2022-08-29T05:49:32.509Z,3.83
2022-08-29T05:52:01.455Z,3.80
2022-08-29T05:54:30.360Z,3.63
2022-08-29T05:57:00.191Z,3.87
2022-08-29T05:59:28.623Z,3.60
2022-08-29T06:01:56.990Z,4.20
2022-08-29T06:04:25.547Z,4.23
2022-08-29T06:06:53.941Z,3.80
2022-08-29T06:09:22.347Z,3.77
2022-08-29T06:11:51.398Z,3.80
2022-08-29T06:14:21.208Z,4.30
2022-08-29T06:16:49.653Z,4.03
2022-08-29T06:19:18.079Z,3.80
2022-08-29T06:21:46.506Z,3.93
2022-08-29T06:24:15.795Z,3.40
2022-08-29T06:26:45.135Z,3.53
2022-08-29T06:29:14.770Z,4.00
2022-08-29T06:31:44.679Z,3.83
2022-08-29T06:34:13.101Z,3.97
2022-08-29T06:36:41.533Z,3.57
2022-08-29T06:39:11.634Z,3.53
2022-08-29T06:41:41.004Z,3.77
2022-08-29T06:44:09.973Z,3.87
2022-08-29T06:46:39.401Z,4.33
2022-08-29T06:49:10.388Z,3.97
2022-08-29T06:51:39.754Z,3.70
2022-08-29T06:54:08.898Z,4.27
2022-08-29T06:56:38.918Z,4.03
2022-08-29T06:59:07.649Z,4.40
2022-08-29T07:01:36.521Z,4.00
2022-08-29T07:04:05.943Z,4.17
2022-08-29T07:06:44.682Z,3.90
2022-08-29T07:09:14.235Z,4.17
2022-08-29T07:11:43.586Z,4.10
2022-08-29T07:14:12.790Z,3.97
2022-08-29T07:16:41.629Z,4.27
2022-08-29T07:19:11.177Z,4.03
2022-08-29T07:21:39.706Z,3.90
2022-08-29T07:24:09.733Z,3.80
2022-08-29T07:26:41.397Z,4.20
2022-08-29T07:29:11.544Z,4.27
2022-08-29T07:31:40.213Z,4.37
2022-08-29T07:34:09.067Z,4.10
2022-08-29T07:36:37.451Z,4.10
2022-08-29T07:39:07.587Z,4.30
2022-08-29T07:41:37.555Z,4.43
2022-08-29T07:44:06.034Z,3.93
2022-08-29T07:46:34.553Z,4.10
2022-08-29T07:49:03.200Z,4.57
2022-08-29T07:51:31.946Z,4.83
2022-08-29T07:54:00.389Z,4.40
2022-08-29T07:56:35.664Z,5.00
2022-08-29T07:59:08.324Z,4.63
2022-08-29T08:01:37.062Z,4.80
2022-08-29T08:04:05.812Z,4.67
2022-08-29T08:06:35.881Z,5.03
2022-08-29T08:09:04.572Z,5.10
2022-08-29T08:11:33.053Z,4.97
2022-08-29T08:14:01.552Z,4.83
2022-08-29T08:16:32.094Z,5.40
2022-08-29T08:19:00.646Z,4.87
2022-08-29T08:21:29.018Z,5.90
2022-08-29T08:23:57.457Z,5.13
2022-08-29T08:26:26.119Z,5.18
2022-08-29T08:28:55.351Z,5.47
2022-08-29T08:31:23.915Z,4.75
2022-08-29T08:33:53.931Z,4.93
2022-08-29T08:36:23.819Z,5.68
2022-08-29T08:38:52.942Z,5.20
2022-08-29T08:41:27.151Z,4.90
2022-08-29T08:43:58.504Z,4.95
2022-08-29T08:46:30.307Z,5.07
2022-08-29T08:49:02.123Z,5.05
2022-08-29T08:51:32.362Z,5.68
2022-08-29T08:54:01.256Z,5.72
2022-08-29T08:56:33.786Z,6.32
2022-08-29T08:59:05.337Z,5.90
2022-08-29T09:01:35.120Z,5.32
2022-08-29T09:04:10.693Z,6.35
2022-08-29T09:06:48.753Z,6.20
2022-08-29T09:09:22.696Z,6.50
2022-08-29T09:11:56.616Z,6.18
2022-08-29T09:14:30.372Z,6.10
2022-08-29T09:17:00.670Z,5.88
2022-08-29T09:19:30.629Z,6.20
2022-08-29T09:22:01.590Z,5.55
2022-08-29T09:24:34.554Z,6.65
2022-08-29T09:27:02.955Z,6.50
2022-08-29T09:29:32.720Z,6.55
2022-08-29T09:32:08.855Z,6.93
2022-08-29T09:35:06.821Z,7.38
2022-08-29T09:37:32.068Z,6.93
2022-08-29T09:40:02.160Z,6.78
2022-08-29T09:42:35.668Z,7.07
2022-08-29T09:45:08.934Z,7.05
2022-08-29T09:47:37.346Z,6.90
2022-08-29T09:50:09.430Z,7.65
2022-08-29T09:52:38.912Z,6.75
2022-08-29T09:55:21.335Z,6.88
2022-08-29T09:57:54.271Z,6.35
2022-08-29T10:00:27.457Z,5.72
2022-08-29T10:02:57.612Z,6.10
2022-08-29T10:05:33.965Z,5.97
2022-08-29T10:08:03.414Z,5.55
2022-08-29T10:10:34.671Z,5.55
2022-08-29T10:13:05.445Z,5.60
2022-08-29T10:15:50.331Z,5.70
2022-08-29T10:18:24.084Z,5.10
2022-08-29T10:20:56.286Z,4.82
2022-08-29T10:23:28.426Z,5.30
2022-08-29T10:25:56.942Z,4.63
2022-08-29T10:28:27.486Z,5.43
2022-08-29T10:30:58.967Z,5.03
2022-08-29T10:33:31.200Z,4.80
2022-08-29T10:36:03.018Z,5.30
2022-08-29T10:38:42.204Z,4.70
2022-08-29T10:41:13.751Z,4.97
2022-08-29T10:43:43.338Z,4.05
2022-08-29T10:46:18.639Z,4.45
2022-08-29T10:48:51.085Z,3.95
2022-08-29T10:51:24.111Z,3.70
2022-08-29T10:53:54.267Z,3.83
2022-08-29T10:56:25.063Z,3.97
2022-08-29T10:59:00.818Z,4.10
2022-08-29T11:01:32.045Z,3.75
2022-08-29T11:04:07.221Z,3.85
2022-08-29T11:06:39.518Z,4.15
2022-08-29T11:09:10.698Z,3.95
2022-08-29T11:11:40.898Z,3.65
2022-08-29T11:14:15.487Z,4.13
2022-08-29T11:16:46.343Z,4.13
2022-08-29T11:19:22.263Z,3.97
2022-08-29T11:21:55.528Z,3.78
2022-08-29T11:24:30.621Z,4.03
2022-08-29T11:27:06.791Z,4.07
2022-08-29T11:29:38.503Z,4.10
2022-08-29T11:32:10.731Z,3.50
2022-08-29T11:34:47.063Z,4.00
2022-08-29T11:37:32.328Z,3.83
2022-08-29T11:40:03.037Z,3.80
2022-08-29T11:45:25.686Z,3.35
2022-08-29T11:48:19.104Z,3.42
2022-08-29T11:50:49.209Z,3.60
2022-08-29T11:53:33.964Z,3.80
2022-08-29T11:56:27.735Z,3.88
2022-08-29T11:58:57.291Z,3.45
2022-08-29T12:01:44.459Z,3.53
2022-08-29T12:04:33.102Z,3.65
2022-08-29T12:07:04.190Z,3.72
2022-08-29T12:09:48.082Z,4.05
2022-08-29T12:12:21.224Z,3.47
2022-08-29T12:14:50.432Z,3.92
2022-08-29T12:18:01.000Z,3.70
2022-08-29T12:20:38.060Z,4.00
2022-08-29T12:23:09.341Z,3.92
2022-08-29T12:25:45.166Z,4.68
2022-08-29T12:28:37.419Z,4.28
2022-08-29T12:31:08.254Z,3.90
2022-08-29T12:33:42.451Z,3.42
2022-08-29T12:36:20.565Z,3.50
2022-08-29T12:38:56.110Z,3.80
2022-08-29T12:41:33.257Z,3.90
2022-08-29T12:44:03.809Z,3.83
2022-08-29T12:46:35.266Z,3.47
2022-08-29T12:49:08.988Z,3.95
2022-08-29T12:51:38.839Z,3.40
2022-08-29T12:54:09.007Z,3.40
2022-08-29T12:56:39.864Z,3.30
2022-08-29T12:59:08.294Z,3.60
2022-08-29T13:01:38.891Z,3.45
2022-08-29T13:04:08.330Z,3.35
2022-08-29T13:06:36.754Z,3.50
2022-08-29T13:09:06.231Z,3.47
2022-08-29T13:11:36.076Z,3.20
2022-08-29T13:14:09.036Z,3.30
2022-08-29T13:16:37.893Z,2.97
2022-08-29T13:19:13.868Z,3.25
2022-08-29T13:21:42.365Z,2.90
2022-08-29T13:24:12.696Z,3.13
2022-08-29T13:26:50.693Z,3.30
2022-08-29T13:29:36.030Z,3.42
2022-08-29T13:32:12.188Z,3.17
2022-08-29T13:35:00.505Z,3.10
2022-08-29T13:37:31.120Z,2.92
2022-08-29T13:40:20.294Z,2.70
2022-08-29T13:42:50.221Z,2.88
2022-08-29T13:45:23.586Z,2.80
2022-08-29T13:47:54.204Z,2.90
2022-08-29T13:50:22.956Z,3.15
2022-08-29T13:52:53.113Z,3.20
2022-08-29T13:55:21.962Z,2.95
2022-08-29T13:57:53.142Z,2.90
2022-08-29T14:00:22.779Z,3.30
2022-08-29T14:03:01.495Z,2.60
2022-08-29T14:05:30.212Z,2.97
2022-08-29T14:07:58.664Z,2.97
2022-08-29T14:10:27.370Z,3.00
2022-08-29T14:12:57.147Z,2.90
2022-08-29T14:15:26.033Z,2.80
2022-08-29T14:17:54.527Z,2.88
2022-08-29T14:20:23.340Z,2.92
2022-08-29T14:22:51.849Z,2.72
2022-08-29T14:25:21.157Z,2.63
2022-08-29T14:27:50.166Z,2.70
2022-08-29T14:30:21.383Z,2.53
2022-08-29T14:32:49.944Z,2.90
2022-08-29T14:35:26.506Z,3.08
2022-08-29T14:38:00.965Z,2.92
2022-08-29T14:40:29.819Z,2.90
2022-08-29T14:42:58.584Z,3.00
2022-08-29T14:45:29.195Z,3.25
2022-08-29T14:47:57.957Z,2.97
2022-08-29T14:50:26.948Z,2.85
2022-08-29T14:52:55.529Z,2.60
2022-08-29T14:55:23.938Z,2.88
2022-08-29T14:57:52.515Z,2.90
2022-08-29T15:00:22.849Z,2.83
2022-08-29T15:02:53.465Z,3.03
2022-08-29T15:05:22.268Z,3.15
2022-08-29T15:07:50.800Z,2.92
2022-08-29T15:10:20.462Z,3.13
2022-08-29T15:12:48.950Z,2.90
2022-08-29T15:15:17.389Z,2.70
2022-08-29T15:17:46.268Z,2.35
2022-08-29T15:20:36.269Z,2.03
2022-08-29T15:23:04.875Z,2.25
2022-08-29T15:25:33.287Z,2.38
2022-08-29T15:28:01.797Z,2.20
2022-08-29T15:30:30.293Z,2.40
2022-08-29T15:32:58.758Z,2.30
2022-08-29T15:35:28.511Z,2.53
2022-08-29T15:37:57.430Z,2.28
2022-08-29T15:40:26.050Z,2.40
2022-08-29T15:42:54.720Z,2.40
2022-08-29T15:45:23.237Z,2.35
2022-08-29T15:47:54.228Z,2.00
2022-08-29T15:50:23.226Z,2.15
2022-08-29T15:52:53.264Z,2.00
2022-08-29T15:55:21.977Z,2.03
2022-08-29T15:57:52.438Z,2.10
2022-08-29T16:00:30.500Z,1.90
2022-08-29T16:02:59.993Z,2.00
2022-08-29T16:05:28.550Z,2.08
2022-08-29T16:07:58.395Z,2.00
2022-08-29T16:10:27.517Z,1.90
2022-08-29T16:12:56.080Z,2.00
2022-08-29T16:15:25.044Z,2.20
2022-08-29T16:17:53.721Z,2.08
2022-08-29T16:20:22.148Z,2.00
2022-08-29T16:22:51.130Z,1.85
2022-08-29T16:25:21.656Z,2.05
2022-08-29T16:27:50.629Z,1.80
2022-08-29T16:30:20.103Z,1.95
2022-08-29T16:32:48.761Z,1.88
2022-08-29T16:35:17.396Z,1.73
2022-08-29T16:37:46.231Z,1.90
2022-08-29T16:40:23.263Z,2.00
2022-08-29T16:42:55.168Z,1.92
2022-08-29T16:45:24.318Z,1.90
2022-08-29T16:47:57.309Z,1.92
2022-08-29T16:50:26.588Z,1.90
2022-08-29T16:52:55.371Z,2.20
2022-08-29T16:55:25.527Z,1.90
2022-08-29T16:58:11.334Z,2.00
2022-08-29T17:00:40.632Z,1.90
2022-08-29T17:03:09.050Z,1.90
2022-08-29T17:05:37.796Z,1.88
2022-08-29T17:08:05.310Z,1.92
2022-08-29T17:10:35.253Z,1.92
2022-08-29T17:13:02.566Z,1.90
2022-08-29T17:15:30.718Z,1.90
2022-08-29T17:18:00.200Z,2.13
2022-08-29T17:20:28.616Z,1.90
2022-08-29T17:22:57.351Z,2.20
2022-08-29T17:25:25.899Z,2.20
2022-08-29T17:28:16.388Z,2.08
2022-08-29T17:30:44.133Z,1.88
2022-08-29T17:33:12.581Z,1.65
2022-08-29T17:35:40.956Z,2.05
2022-08-29T17:38:09.710Z,1.83
2022-08-29T17:40:40.019Z,2.00
2022-08-29T17:43:13.185Z,1.98
2022-08-29T17:45:41.714Z,1.98
2022-08-29T17:48:10.396Z,2.10
2022-08-29T17:50:39.156Z,2.00
2022-08-29T17:53:07.571Z,2.17
2022-08-29T17:55:35.989Z,2.05
2022-08-29T17:58:04.491Z,2.00
2022-08-29T18:00:34.655Z,2.28
2022-08-29T18:03:03.467Z,2.05
2022-08-29T18:05:31.848Z,2.13
2022-08-29T18:08:00.258Z,2.00
2022-08-29T18:10:28.887Z,2.10
2022-08-29T18:12:57.343Z,2.25
2022-08-29T18:15:26.060Z,2.10
2022-08-29T18:17:55.979Z,2.17
2022-08-29T18:20:24.380Z,2.22
2022-08-29T18:22:52.842Z,2.00
2022-08-29T18:25:24.080Z,1.90
2022-08-29T18:27:52.556Z,2.20
2022-08-29T18:30:21.140Z,2.00
2022-08-29T18:32:49.641Z,2.00
2022-08-29T18:35:19.849Z,1.90
2022-08-29T18:37:48.292Z,1.83
2022-08-29T18:40:16.900Z,1.83
2022-08-29T18:42:45.368Z,2.10
2022-08-29T18:45:14.132Z,2.13
2022-08-29T18:47:42.558Z,2.00
2022-08-29T18:50:28.943Z,2.00
2022-08-29T18:52:58.954Z,2.00
2022-08-29T18:55:27.673Z,2.38
2022-08-29T18:57:56.931Z,2.03
2022-08-29T19:00:26.232Z,2.10
2022-08-29T19:02:55.046Z,2.42
2022-08-29T19:05:24.399Z,2.10
2022-08-29T19:07:53.089Z,1.98
2022-08-29T19:10:23.475Z,1.75
2022-08-29T19:12:51.891Z,1.70
2022-08-29T19:15:21.045Z,1.88
2022-08-29T19:17:49.991Z,1.55
2022-08-29T19:20:37.668Z,1.83
2022-08-29T19:23:07.094Z,1.70
2022-08-29T19:25:37.808Z,1.63
2022-08-29T19:28:06.792Z,2.10
2022-08-29T19:30:35.264Z,1.42
2022-08-29T19:33:03.680Z,1.50
2022-08-29T19:35:32.170Z,1.70
2022-08-29T19:38:00.717Z,1.42
2022-08-29T19:40:31.621Z,1.50
2022-08-29T19:43:14.321Z,1.50
2022-08-29T19:45:43.480Z,1.75
2022-08-29T19:48:15.114Z,1.42
2022-08-29T19:50:47.539Z,1.50
2022-08-29T19:53:24.580Z,1.63
2022-08-29T19:55:55.151Z,1.50
2022-08-29T19:58:31.727Z,1.60
2022-08-29T20:01:04.566Z,1.50
2022-08-29T20:03:35.990Z,1.40
2022-08-29T20:06:06.973Z,1.40
2022-08-29T20:08:36.867Z,1.30
2022-08-29T20:11:06.387Z,1.50
2022-08-29T20:13:37.129Z,1.25
2022-08-29T20:16:12.202Z,1.33
2022-08-29T20:18:41.151Z,1.30
2022-08-29T20:21:09.706Z,1.30
2022-08-29T20:23:41.445Z,1.50
2022-08-29T20:26:17.726Z,1.20
2022-08-29T20:28:47.537Z,1.20
2022-08-29T20:31:15.976Z,1.50
2022-08-29T20:33:45.835Z,1.40
2022-08-29T20:36:31.741Z,1.30
2022-08-29T20:39:00.175Z,1.40
2022-08-29T20:41:28.852Z,1.13
2022-08-29T20:44:06.840Z,1.27
2022-08-29T20:46:35.380Z,1.20
2022-08-29T20:49:03.819Z,1.20
2022-08-29T20:51:32.196Z,1.20
2022-08-29T20:54:01.590Z,1.25
2022-08-29T20:56:29.968Z,1.30
2022-08-29T20:58:59.739Z,1.38
2022-08-29T21:01:28.121Z,1.40
2022-08-29T21:04:14.308Z,1.38
2022-08-29T21:06:49.466Z,1.40
2022-08-29T21:09:17.892Z,1.40
2022-08-29T21:11:46.373Z,1.13
2022-08-29T21:14:16.177Z,1.33
2022-08-29T21:16:44.570Z,1.30
2022-08-29T21:19:13.506Z,1.50
2022-08-29T21:21:42.575Z,1.40
2022-08-29T21:24:11.673Z,1.40
2022-08-29T21:26:40.938Z,1.50
2022-08-29T21:29:09.772Z,1.33
2022-08-29T21:31:40.428Z,1.48
2022-08-29T21:34:10.578Z,1.30
2022-08-29T21:36:39.841Z,1.30
2022-08-29T21:39:09.458Z,1.50
2022-08-29T21:41:40.418Z,1.50
2022-08-29T21:44:09.227Z,1.60
2022-08-29T21:46:43.315Z,1.40
2022-08-29T21:49:13.796Z,1.45
2022-08-29T21:51:42.199Z,1.60
2022-08-29T21:54:13.554Z,1.43
2022-08-29T21:56:42.584Z,1.30
2022-08-29T21:59:11.811Z,1.50
2022-08-29T22:01:43.831Z,1.40
2022-08-29T22:04:19.346Z,1.70
2022-08-29T22:06:57.245Z,1.33
2022-08-29T22:09:26.488Z,1.47
2022-08-29T22:11:54.910Z,1.50
2022-08-29T22:14:43.824Z,1.57
2022-08-29T22:17:12.744Z,1.33
2022-08-29T22:19:41.894Z,1.50
2022-08-29T22:22:10.303Z,1.40
2022-08-29T22:24:38.739Z,1.60
2022-08-29T22:27:07.391Z,1.33
2022-08-29T22:29:35.865Z,1.50
2022-08-29T22:32:04.513Z,1.50
2022-08-29T22:34:34.339Z,1.30
2022-08-29T22:37:02.734Z,1.40
2022-08-29T22:39:31.182Z,1.30
2022-08-29T22:41:59.605Z,1.30
2022-08-29T22:45:02.693Z,1.50
2022-08-29T22:47:17.408Z,1.60
2022-08-29T22:49:47.187Z,1.30
2022-08-29T22:52:15.593Z,1.40
2022-08-29T22:54:44.040Z,1.40
2022-08-29T22:57:13.730Z,1.43
2022-08-29T22:59:42.856Z,1.80
2022-08-29T23:02:11.707Z,1.40
2022-08-29T23:04:40.224Z,1.40
2022-08-29T23:07:11.823Z,1.33
2022-08-29T23:09:40.639Z,1.47
2022-08-29T23:12:09.237Z,1.50
2022-08-29T23:14:38.543Z,1.40
2022-08-29T23:17:08.499Z,1.37
2022-08-29T23:19:37.271Z,1.50
2022-08-29T23:22:11.491Z,1.60
2022-08-29T23:24:41.576Z,1.43
2022-08-29T23:27:27.026Z,1.40
2022-08-29T23:29:55.469Z,1.60
2022-08-29T23:32:23.908Z,1.20
2022-08-29T23:34:52.509Z,1.77
2022-08-29T23:37:22.280Z,1.40
2022-08-29T23:39:50.951Z,1.50
2022-08-29T23:42:19.454Z,1.50
2022-08-29T23:44:48.438Z,1.30
2022-08-29T23:47:17.218Z,1.70
2022-08-29T23:49:45.643Z,1.30
2022-08-29T23:52:14.502Z,1.60
2022-08-29T23:54:44.304Z,1.40
2022-08-29T23:57:12.894Z,1.53
2022-08-29T23:59:58.768Z,1.40
